Etusivu
METAR-TAF:

METAR-TAF

Lentoasemat :

Kuwaitin kansainvälinen lentoasema

Kuwait, Kuwait

Leveyspiiri: 29-13N, Pituuspiiri: 047-59E, korkeus merenpinnasta: 55 m

Tämänhetkinen sää

Tämä raportti tehtiin 1 tunti ja 3 minuuttia sitten, kello 15.00 UTC
Tuuli 8 kn pohjoisesta
Lämpötila 19°C
Kosteus 88%
Ilmanpaine 1018 hPa
Näkyvyys: 6000 m
Hajanaisia pilviä 2000 ft:n korkeudessa

METAR: OKBK 291500Z 35008KT 6000 SCT020 19/17 Q1018 NOSIG

Aika: 19:03 (16:03 UTC)

Sääennuste

Tämä raportti tehtiin 5 tuntia ja 18 minuuttia sitten, kello 10.45 UTC
Ennuste voimassa 29. päivästä klo 12 UTC - 30. päivään klo 18 UTC
Tuuli 10 kn pohjoisesta puuskistuen 20 kn:hen
Näkyvyys: 7000 m
Muutamia pilviä 3000 ft:n korkeudessa
Hajanaisia pilviä 8000 ft:n korkeudessa

TAF: OKBK 291045Z 2912/3018 35010G20KT 7000 FEW030 SCT080

Säähavainnot ja -ennusteet yli 4000 lentoasemalta (METAR- ja TAF-raportit).

Käytössä olevat sääasemat on merkitty karttaan keltaisilla ja punaisilla pisteillä.

Aseta hiiri pisteen päälle nähdäksesi sääaseman nimen.

Klikkaa sitten nähdäksesi säähavainnot ja -ennusteet.

Kartan vaihtaminen: klikkaa mustalla rastilla varustettuja vihreitä pisteitä, niin voit zoomata sisään; viivalla varustettua vihreää pistettä, niin voit zoomata ulos tai vihreitä nuolia, niin pääset viereisille kartoille.


METAR-TAF: